Aviation Digital Data Service (ADDS)

Output produced by METARs form (1401 UTC 20 January 2017)
found at http://www.aviationweather.gov/adds/metars/
 
KLGA 201330Z 2014/2112 06006KT P6SM OVC025 
     FM201600 10004KT P6SM OVC025 
     FM202000 14006KT 6SM -RA BKN020 BKN200 
     FM202200 13006KT 3SM -RA BR OVC015 
     FM210100 17004KT 1 1/2SM -RA BR OVC010 
     FM210300 18004KT 2SM -RA BR OVC008 
     FM210700 VRB03KT 2SM BR OVC006